Uni-arise — 3FSV7 — position and weather

sailwx.info

Track history (hours):
 
Tides and Currents Weather Stations Pressure Air Temp Water Temp Dewpoint Dewpoint Depression Visibility Wind Speed Wind Dir Waves Ship Positions

Uni-arise

Last reported at 2014-Oct-22 09:07 UTC. Time now 2014-Oct-24 20:27 UTC.
Position N 01°15' E 104°06'.

Length 165 m; draft 6.3 m.

Type: Cargo ship. MMSI: 351608000.

Date/timePositionNaut miles runAvg speedWind from/ knotsBaromVisibWave heightAir tempDewpointWater temp
2014-Oct-22 09:07N 01°15' E 104°06'1016.1
2014-Oct-22 08:31N 01°13' E 103°56'19 0.4
2014-Oct-20 08:05N 01°11' E 103°37'915.9
2014-Oct-20 07:32N 01°09' E 103°46'1515.2
2014-Oct-20 06:33N 01°15' E 103°59'  
2014-Oct-13 13:30N 01°15' E 104°07'1414.6
2014-Oct-13 12:33N 01°13' E 103°53'4 4.0
2014-Oct-13 11:33N 01°16' E 103°50'0 0.0
2014-Oct-13 10:33N 01°16' E 103°50'0 0.0
2014-Oct-13 09:33N 01°16' E 103°50'0 0.0
2014-Oct-13 08:30N 01°16' E 103°50'0 0.0
2014-Oct-13 07:24N 01°16' E 103°50'0 0.0
2014-Oct-13 06:33N 01°16' E 103°50'0 0.0
2014-Oct-13 05:30N 01°16' E 103°50'0 0.0
2014-Oct-13 04:33N 01°16' E 103°50'0 0.0
2014-Oct-13 03:33N 01°16' E 103°50'0 0.0
2014-Oct-13 01:27N 01°16' E 103°50'1 1.2
2014-Oct-13 00:34N 01°15' E 103°51'6 5.7
2014-Oct-12 23:31N 01°15' E 103°57'9 9.3
2014-Oct-12 22:32N 01°15' E 104°06'2 0.8
2014-Oct-12 20:31N 01°15' E 104°05'  
Track history (hours):
 
Tides and Currents Weather Stations Pressure Air Temp Water Temp Dewpoint Dewpoint Depression Visibility Wind Speed Wind Dir Waves Ship Positions

Uni-arise

Last reported at 2014-Oct-22 09:07 UTC. Time now 2014-Oct-24 20:27 UTC.
Position N 01°15' E 104°06'.

Length 165 m; draft 6.3 m.

Type: Cargo ship. MMSI: 351608000.

Date/timePositionNaut miles runAvg speedWind from/ knotsBaromVisibWave heightAir tempDewpointWater temp
2014-Oct-22 09:07N 01°15' E 104°06'1016.1
2014-Oct-22 08:31N 01°13' E 103°56'19 0.4
2014-Oct-20 08:05N 01°11' E 103°37'915.9
2014-Oct-20 07:32N 01°09' E 103°46'1515.2
2014-Oct-20 06:33N 01°15' E 103°59'  
2014-Oct-13 13:30N 01°15' E 104°07'1414.6
2014-Oct-13 12:33N 01°13' E 103°53'4 4.0
2014-Oct-13 11:33N 01°16' E 103°50'0 0.0
2014-Oct-13 10:33N 01°16' E 103°50'0 0.0
2014-Oct-13 09:33N 01°16' E 103°50'0 0.0
2014-Oct-13 08:30N 01°16' E 103°50'0 0.0
2014-Oct-13 07:24N 01°16' E 103°50'0 0.0
2014-Oct-13 06:33N 01°16' E 103°50'0 0.0
2014-Oct-13 05:30N 01°16' E 103°50'0 0.0
2014-Oct-13 04:33N 01°16' E 103°50'0 0.0
2014-Oct-13 03:33N 01°16' E 103°50'0 0.0
2014-Oct-13 01:27N 01°16' E 103°50'1 1.2
2014-Oct-13 00:34N 01°15' E 103°51'6 5.7
2014-Oct-12 23:31N 01°15' E 103°57'9 9.3
2014-Oct-12 22:32N 01°15' E 104°06'2 0.8
2014-Oct-12 20:31N 01°15' E 104°05'  

Dump ship's entire track history